Time;durP1;ratioP1;P1;durP2;ratioP2;P2;SDS_P1;SDS_P2;PMS_P1;PMS_P2;Temp;Humidity;BMP_temperature;BMP_pressure;BME280_temperature;BME280_humidity;BME280_pressure;Samples;Min_cycle;Max_cycle;Signal;HPM_P1;HPM_P2
2022/07/13 00:00:26;;;;;;;18.90;16.90;;;;;24.50;101103.00;;;;2071291;28;20698;-55
2022/07/13 00:01:29;;;;;;;19.50;17.03;;;;;24.50;101102.00;;;;2071677;28;20827;-55
2022/07/13 00:02:29;;;;;;;17.83;15.95;;;;;24.50;101100.00;;;;2071558;28;20218;-55
2022/07/13 00:03:30;;;;;;;18.97;16.97;;;;;24.50;101107.00;;;;2071664;28;20206;-55
2022/07/13 00:04:30;;;;;;;22.30;17.97;;;;;24.50;101106.00;;;;2071702;28;20294;-55
2022/07/13 00:05:30;;;;;;;19.47;17.30;;;;;24.50;101103.00;;;;2071009;28;20218;-55
2022/07/13 00:06:30;;;;;;;21.30;16.17;;;;;24.50;101084.00;;;;2070857;28;20206;-55
2022/07/13 00:07:31;;;;;;;18.77;16.37;;;;;24.50;101107.00;;;;2070007;28;20249;-55
2022/07/13 00:08:31;;;;;;;18.10;16.20;;;;;24.50;101106.00;;;;2071688;28;20222;-55
2022/07/13 00:09:32;;;;;;;17.23;14.60;;;;;24.50;101070.00;;;;2071054;28;20228;-55
2022/07/13 00:10:32;;;;;;;16.60;14.83;;;;;24.50;101100.00;;;;2070231;28;20218;-56
2022/07/13 00:11:32;;;;;;;16.93;14.77;;;;;24.50;101099.00;;;;2071488;28;20222;-55
2022/07/13 00:12:33;;;;;;;16.93;15.13;;;;;24.50;101099.00;;;;2069940;28;20256;-55
2022/07/13 00:13:33;;;;;;;15.70;14.03;;;;;24.50;101091.00;;;;2071206;28;20257;-55
2022/07/13 00:14:33;;;;;;;16.10;14.40;;;;;24.50;101094.00;;;;2073535;28;20217;-55
2022/07/13 00:15:34;;;;;;;16.90;14.60;;;;;24.40;101095.00;;;;2074902;28;20221;-55
2022/07/13 00:16:34;;;;;;;15.70;14.00;;;;;23.90;101095.00;;;;2071925;28;20214;-57
2022/07/13 00:17:34;;;;;;;15.00;13.40;;;;;24.40;101095.00;;;;2071009;28;20210;-55
2022/07/13 00:18:35;;;;;;;14.73;12.40;;;;;24.50;101087.00;;;;2075124;28;20244;-54
2022/07/13 00:19:35;;;;;;;14.70;13.13;;;;;24.50;101090.00;;;;2079730;28;20202;-55
2022/07/13 00:20:36;;;;;;;14.37;12.97;;;;;24.50;101086.00;;;;2078645;28;20202;-54
2022/07/13 00:21:36;;;;;;;13.90;12.40;;;;;24.50;101092.00;;;;2071792;28;20206;-55
2022/07/13 00:22:36;;;;;;;13.70;11.93;;;;;24.50;101082.00;;;;2071830;28;20210;-55
2022/07/13 00:23:37;;;;;;;14.53;12.33;;;;;24.50;101086.00;;;;2071349;28;20245;-54
2022/07/13 00:24:37;;;;;;;12.60;11.40;;;;;24.50;101083.00;;;;2079699;28;20225;-54
2022/07/13 00:25:37;;;;;;;13.73;12.30;;;;;24.50;101084.00;;;;2079480;28;20228;-54
2022/07/13 00:26:38;;;;;;;12.40;11.10;;;;;24.40;101084.00;;;;2079547;28;20748;-55
2022/07/13 00:27:39;;;;;;;13.40;10.73;;;;;24.40;101079.00;;;;2078982;28;20935;-55
2022/07/13 00:28:39;;;;;;;11.20;10.10;;;;;24.40;101075.00;;;;2079898;28;20456;-55
2022/07/13 00:29:39;;;;;;;12.80;11.60;;;;;24.40;101074.00;;;;2074329;28;20252;-55
2022/07/13 00:30:40;;;;;;;13.87;11.30;;;;;24.50;101079.00;;;;2071622;28;20210;-54
2022/07/13 00:31:41;;;;;;;11.33;10.23;;;;;24.40;101079.00;;;;2071609;28;20236;-55
2022/07/13 00:32:42;;;;;;;11.25;10.15;;;;;24.40;101079.00;;;;2071854;28;20214;-55
2022/07/13 00:33:42;;;;;;;12.20;11.00;;;;;24.40;101080.00;;;;2077092;28;20249;-54
2022/07/13 00:34:42;;;;;;;12.90;11.60;;;;;24.50;101091.00;;;;2077637;28;20222;-54
2022/07/13 00:35:43;;;;;;;11.63;10.43;;;;;24.50;101080.00;;;;2079549;28;20213;-56
2022/07/13 00:36:43;;;;;;;11.83;10.60;;;;;24.50;101109.00;;;;2079493;28;20218;-54
2022/07/13 00:37:43;;;;;;;10.77;9.77;;;;;24.50;101111.00;;;;2078764;28;20594;-52
2022/07/13 00:38:44;;;;;;;12.17;10.57;;;;;24.50;101116.00;;;;2079521;28;20213;-53
2022/07/13 00:39:44;;;;;;;10.83;9.83;;;;;24.40;101117.00;;;;2079775;28;20283;-55
2022/07/13 00:40:44;;;;;;;10.73;9.63;;;;;24.50;101116.00;;;;2079597;28;20217;-56
2022/07/13 00:41:45;;;;;;;9.83;8.83;;;;;24.50;101109.00;;;;2079577;28;20229;-55
2022/07/13 00:42:46;;;;;;;9.43;8.50;;;;;24.40;101105.00;;;;2079437;28;20746;-57
2022/07/13 00:43:46;;;;;;;9.73;8.73;;;;;24.40;101092.00;;;;2079514;28;20293;-57
2022/07/13 00:44:47;;;;;;;11.00;9.90;;;;;24.40;101090.00;;;;2079302;28;20221;-58
2022/07/13 00:45:47;;;;;;;9.87;8.87;;;;;24.40;101092.00;;;;2079456;28;20229;-55
2022/07/13 00:46:52;;;;;;;9.70;8.80;;;;;24.40;101108.00;;;;2076470;28;20664;-54
2022/07/13 00:47:52;;;;;;;9.93;8.93;;;;;24.40;101083.00;;;;2068823;28;20210;-55
2022/07/13 00:48:53;;;;;;;13.50;9.47;;;;;24.40;101072.00;;;;2062404;28;20238;-54
2022/07/13 00:49:53;;;;;;;10.23;9.23;;;;;24.40;101069.00;;;;2070350;28;20224;-55
2022/07/13 00:50:53;;;;;;;10.40;9.37;;;;;24.40;101064.00;;;;2076818;28;20213;-54
2022/07/13 00:51:54;;;;;;;10.50;9.40;;;;;24.40;101059.00;;;;2078634;28;20678;-55
2022/07/13 00:52:54;;;;;;;11.20;10.10;;;;;24.40;101051.00;;;;2062599;28;20265;-55
2022/07/13 00:53:54;;;;;;;11.67;10.47;;;;;24.40;101048.00;;;;2070415;28;20205;-54
2022/07/13 00:54:55;;;;;;;11.20;9.93;;;;;24.40;101026.00;;;;2079255;28;20296;-55
2022/07/13 00:55:55;;;;;;;11.30;10.10;;;;;24.40;101051.00;;;;2078217;28;20217;-55
2022/07/13 00:56:57;;;;;;;10.57;9.47;;;;;24.50;101057.00;;;;2070137;28;20210;-54
2022/07/13 00:57:58;;;;;;;10.80;9.55;;;;;24.50;101059.00;;;;2075918;28;20221;-55
2022/07/13 00:58:59;;;;;;;10.57;9.53;;;;;24.40;101060.00;;;;2070820;28;20238;-55
2022/07/13 00:59:59;;;;;;;10.10;9.10;;;;;24.40;101051.00;;;;2077955;28;20824;-54
2022/07/13 01:01:00;;;;;;;10.67;9.57;;;;;24.40;101054.00;;;;2061392;28;20464;-54
2022/07/13 01:02:00;;;;;;;10.80;8.87;;;;;24.40;101057.00;;;;2080021;28;20213;-54
2022/07/13 01:03:00;;;;;;;10.20;9.20;;;;;24.40;101057.00;;;;2073700;28;20314;-54
2022/07/13 01:04:01;;;;;;;11.30;9.70;;;;;24.40;101059.00;;;;2087441;28;20240;-56
2022/07/13 01:05:01;;;;;;;9.33;8.43;;;;;24.40;101063.00;;;;2075069;28;20225;-57
2022/07/13 01:06:01;;;;;;;9.70;8.70;;;;;24.40;101056.00;;;;2070123;28;20214;-57
2022/07/13 01:07:02;;;;;;;9.10;8.13;;;;;24.40;101055.00;;;;2062285;28;20238;-57
2022/07/13 01:08:03;;;;;;;9.83;8.13;;;;;24.40;101046.00;;;;2069624;28;20214;-57
2022/07/13 01:09:04;;;;;;;8.80;7.80;;;;;24.40;101044.00;;;;2078303;28;20235;-54
2022/07/13 01:10:05;;;;;;;9.43;8.53;;;;;24.40;101044.00;;;;2071168;28;20682;-54
2022/07/13 01:11:06;;;;;;;7.78;7.15;;;;;24.40;101041.00;;;;2070996;28;20570;-55
2022/07/13 01:12:07;;;;;;;9.30;8.30;;;;;24.40;101055.00;;;;2062278;28;20290;-53
2022/07/13 01:13:08;;;;;;;7.77;7.07;;;;;24.40;101051.00;;;;2069801;28;20457;-55
2022/07/13 01:14:08;;;;;;;7.93;7.13;;;;;24.40;101045.00;;;;2065133;28;20242;-56
2022/07/13 01:15:09;;;;;;;8.03;7.23;;;;;24.40;101048.00;;;;2054513;28;20451;-55
2022/07/13 01:16:09;;;;;;;9.70;8.07;;;;;24.50;101044.00;;;;2073242;28;20214;-55
2022/07/13 01:17:10;;;;;;;8.57;7.10;;;;;24.50;101050.00;;;;2079190;28;20208;-56
2022/07/13 01:18:13;;;;;;;8.00;7.20;;;;;24.40;101053.00;;;;2078477;28;20288;-57
2022/07/13 01:19:13;;;;;;;8.07;7.10;;;;;24.40;101060.00;;;;2079205;28;20614;-55
2022/07/13 01:20:15;;;;;;;7.63;6.83;;;;;24.40;101045.00;;;;2076128;28;20206;-57
2022/07/13 01:21:15;;;;;;;9.18;7.07;;;;;24.50;101059.00;;;;2074231;28;20217;-56
2022/07/13 01:22:18;;;;;;;7.57;6.87;;;;;24.40;101040.00;;;;2071024;28;20202;-56
2022/07/13 01:23:18;;;;;;;7.90;7.05;;;;;24.40;101054.00;;;;2062121;28;20411;-57
2022/07/13 01:24:18;;;;;;;8.50;7.37;;;;;24.40;101052.00;;;;2062247;28;20226;-56
2022/07/13 01:25:19;;;;;;;7.20;6.50;;;;;24.40;101048.00;;;;2071114;28;20214;-55
2022/07/13 01:26:19;;;;;;;8.00;7.30;;;;;24.40;101050.00;;;;2070893;28;20264;-55
2022/07/13 01:27:19;;;;;;;8.33;6.80;;;;;24.40;101060.00;;;;2070204;28;20218;-56
2022/07/13 01:28:20;;;;;;;7.30;6.60;;;;;24.40;101053.00;;;;2070471;28;20229;-55
2022/07/13 01:29:20;;;;;;;7.33;6.70;;;;;24.40;101052.00;;;;2070097;28;20210;-55
2022/07/13 01:30:20;;;;;;;7.50;6.80;;;;;24.40;101047.00;;;;2070584;28;20280;-58
2022/07/13 01:31:34;;;;;;;6.47;5.87;;;;;24.40;101047.00;;;;2070439;28;20238;-56
2022/07/13 01:32:47;;;;;;;7.15;6.45;;;;;24.40;101052.00;;;;2070520;28;20218;-58
2022/07/13 01:33:48;;;;;;;7.30;6.57;;;;;24.40;101075.00;;;;2070888;28;20226;-55
2022/07/13 01:34:48;;;;;;;7.10;6.40;;;;;24.40;101043.00;;;;2070681;28;20681;-55
2022/07/13 01:35:48;;;;;;;6.53;5.90;;;;;24.40;101051.00;;;;2072532;28;20709;-55
2022/07/13 01:36:48;;;;;;;6.83;6.13;;;;;24.40;101034.00;;;;2079339;28;20987;-54
2022/07/13 01:37:49;;;;;;;7.70;6.40;;;;;24.40;101039.00;;;;2077441;28;20601;-57
2022/07/13 01:38:50;;;;;;;7.20;6.30;;;;;24.40;101046.00;;;;2078333;28;20252;-55
2022/07/13 01:39:50;;;;;;;7.07;6.37;;;;;24.40;101044.00;;;;2077895;28;20704;-55
2022/07/13 01:40:50;;;;;;;6.63;5.93;;;;;24.40;101046.00;;;;2078175;28;20217;-55
2022/07/13 01:41:51;;;;;;;6.63;5.93;;;;;24.40;101041.00;;;;2079062;28;20221;-55
2022/07/13 01:42:51;;;;;;;6.80;6.07;;;;;24.40;101022.00;;;;2071444;28;20277;-54
2022/07/13 01:43:52;;;;;;;6.67;5.97;;;;;24.40;101041.00;;;;2070322;28;20210;-55
2022/07/13 01:44:52;;;;;;;5.87;5.20;;;;;24.40;101025.00;;;;2070132;28;20980;-55
2022/07/13 01:45:53;;;;;;;7.27;6.57;;;;;24.40;101034.00;;;;2069961;28;20305;-55
2022/07/13 01:46:53;;;;;;;6.73;6.03;;;;;24.40;101036.00;;;;2070227;28;20210;-55
2022/07/13 01:47:54;;;;;;;6.07;5.47;;;;;24.40;101029.00;;;;2070016;28;20249;-54
2022/07/13 01:48:55;;;;;;;6.28;5.68;;;;;24.40;101028.00;;;;2069869;28;20218;-55
2022/07/13 01:49:55;;;;;;;5.60;5.10;;;;;24.40;101027.00;;;;2062091;28;20936;-55
2022/07/13 01:50:55;;;;;;;6.47;5.70;;;;;24.40;101015.00;;;;2070022;28;20210;-54
2022/07/13 01:51:56;;;;;;;7.07;5.87;;;;;24.40;101031.00;;;;2070115;28;20283;-54
2022/07/13 01:52:56;;;;;;;5.80;5.30;;;;;24.40;101024.00;;;;2070205;28;20600;-56
2022/07/13 01:53:56;;;;;;;6.50;5.90;;;;;24.40;101030.00;;;;2069426;28;20643;-55
2022/07/13 01:54:57;;;;;;;5.60;5.10;;;;;24.40;101017.00;;;;2070793;28;20214;-55
2022/07/13 01:55:57;;;;;;;5.97;5.40;;;;;24.40;101025.00;;;;2070700;28;22895;-55
2022/07/13 01:56:57;;;;;;;5.77;5.27;;;;;24.40;101016.00;;;;2070938;28;20229;-55
2022/07/13 01:57:58;;;;;;;5.93;5.40;;;;;24.40;101014.00;;;;2069879;28;20272;-55
2022/07/13 01:58:59;;;;;;;6.60;5.50;;;;;24.40;101008.00;;;;2070896;28;20226;-55
2022/07/13 02:00:01;;;;;;;6.90;5.63;;;;;24.40;101007.00;;;;2070241;28;21161;-55
2022/07/13 02:01:01;;;;;;;5.63;5.07;;;;;24.40;101004.00;;;;2069628;28;20272;-55
2022/07/13 02:02:02;;;;;;;6.87;5.37;;;;;24.40;101008.00;;;;2070383;28;20215;-55
2022/07/13 02:03:03;;;;;;;5.63;5.13;;;;;24.40;101009.00;;;;2069973;28;20217;-55
2022/07/13 02:04:04;;;;;;;5.45;4.95;;;;;24.40;100997.00;;;;2070270;28;20226;-55
2022/07/13 02:05:04;;;;;;;5.73;5.23;;;;;24.30;100998.00;;;;2069282;28;20280;-55
2022/07/13 02:06:05;;;;;;;5.50;5.00;;;;;24.40;100995.00;;;;2069731;28;20272;-55
2022/07/13 02:07:06;;;;;;;5.40;4.90;;;;;24.40;100997.00;;;;2069791;28;20221;-55
2022/07/13 02:08:06;;;;;;;5.35;4.70;;;;;24.40;101000.00;;;;2069635;28;20223;-55
2022/07/13 02:09:07;;;;;;;4.67;4.27;;;;;24.40;101007.00;;;;2070433;28;20244;-55
2022/07/13 02:10:08;;;;;;;5.80;5.23;;;;;24.40;101003.00;;;;2072748;28;20218;-55
2022/07/13 02:11:16;;;;;;;6.55;4.78;;;;;24.40;101004.00;;;;2078250;28;20497;-55
2022/07/13 02:12:17;;;;;;;5.22;4.72;;;;;24.40;100996.00;;;;2078522;28;20217;-55
2022/07/13 02:13:19;;;;;;;5.23;4.83;;;;;24.40;100993.00;;;;2078668;28;20237;-54
2022/07/13 02:14:19;;;;;;;5.05;4.45;;;;;24.40;100997.00;;;;2078447;28;20210;-55
2022/07/13 02:15:20;;;;;;;5.30;4.77;;;;;24.40;100992.00;;;;2078528;28;20553;-55
2022/07/13 02:16:21;;;;;;;5.67;5.27;;;;;24.40;100997.00;;;;2078155;28;20233;-55
2022/07/13 02:17:21;;;;;;;5.93;4.60;;;;;24.40;100996.00;;;;2077792;28;20213;-55
2022/07/13 02:18:22;;;;;;;4.73;4.33;;;;;24.40;100994.00;;;;2078834;28;20787;-56
2022/07/13 02:19:23;;;;;;;4.47;4.17;;;;;24.40;100997.00;;;;2078232;28;20573;-56
2022/07/13 02:20:23;;;;;;;5.15;4.65;;;;;24.30;101001.00;;;;2078881;28;20209;-57
2022/07/13 02:21:24;;;;;;;4.73;4.33;;;;;24.30;100997.00;;;;2078794;28;20202;-56
2022/07/13 02:22:25;;;;;;;5.13;4.63;;;;;24.30;101007.00;;;;2078844;28;20228;-54
2022/07/13 02:23:25;;;;;;;4.90;4.50;;;;;24.40;100995.00;;;;2078563;28;20444;-56
2022/07/13 02:24:25;;;;;;;4.90;4.40;;;;;24.40;101006.00;;;;2077740;28;20205;-57
2022/07/13 02:25:26;;;;;;;4.20;3.90;;;;;24.40;101006.00;;;;2078034;28;20305;-59
2022/07/13 02:26:26;;;;;;;5.20;4.30;;;;;24.40;101007.00;;;;2078636;28;20232;-55
2022/07/13 02:27:27;;;;;;;4.37;4.07;;;;;24.40;101009.00;;;;2077730;28;20253;-57
2022/07/13 02:28:27;;;;;;;4.50;4.10;;;;;24.40;101009.00;;;;2078613;28;20249;-56
2022/07/13 02:29:27;;;;;;;5.10;4.60;;;;;24.40;101008.00;;;;2078890;28;20348;-56
2022/07/13 02:30:27;;;;;;;5.90;5.00;;;;;24.40;101002.00;;;;2072068;28;20214;-57
2022/07/13 02:31:28;;;;;;;4.83;4.40;;;;;24.40;101011.00;;;;2070550;28;20272;-57
2022/07/13 02:32:28;;;;;;;5.10;4.23;;;;;24.40;100999.00;;;;2070376;28;20206;-55
2022/07/13 02:33:28;;;;;;;4.50;4.10;;;;;24.40;100998.00;;;;2070749;28;20225;-56
2022/07/13 02:34:29;;;;;;;4.50;4.10;;;;;24.40;101003.00;;;;2070588;28;20214;-56
2022/07/13 02:35:29;;;;;;;4.50;4.10;;;;;24.40;100993.00;;;;2069801;28;20221;-56
2022/07/13 02:36:29;;;;;;;4.50;4.10;;;;;24.40;100997.00;;;;2070339;28;20210;-59
2022/07/13 02:37:30;;;;;;;4.80;4.33;;;;;24.40;100993.00;;;;2069837;28;20239;-56
2022/07/13 02:38:30;;;;;;;3.60;3.30;;;;;24.40;100984.00;;;;2070588;28;20214;-54
2022/07/13 02:39:30;;;;;;;5.57;4.13;;;;;24.40;100989.00;;;;2070717;28;20256;-57
2022/07/13 02:40:31;;;;;;;4.50;4.10;;;;;24.40;100982.00;;;;2070184;28;20210;-57
2022/07/13 02:41:31;;;;;;;4.57;4.17;;;;;24.30;100979.00;;;;2070664;28;20221;-56
2022/07/13 02:42:31;;;;;;;4.50;4.10;;;;;24.30;100982.00;;;;2070587;28;20214;-56
2022/07/13 02:43:32;;;;;;;4.83;4.33;;;;;24.30;100985.00;;;;2068709;28;20301;-55
2022/07/13 02:44:32;;;;;;;4.67;3.90;;;;;24.30;100985.00;;;;2078284;28;20236;-56
2022/07/13 02:45:32;;;;;;;5.23;4.60;;;;;24.40;101005.00;;;;2078755;28;20585;-55
2022/07/13 02:46:33;;;;;;;4.10;3.80;;;;;24.40;100980.00;;;;2078639;28;20648;-57
2022/07/13 02:47:33;;;;;;;4.23;3.83;;;;;24.40;100981.00;;;;2077785;28;20235;-56
2022/07/13 02:48:33;;;;;;;4.47;4.07;;;;;24.30;100977.00;;;;2074859;28;20587;-55
2022/07/13 02:49:34;;;;;;;3.80;3.53;;;;;24.30;100978.00;;;;2070214;28;20214;-56
2022/07/13 02:50:34;;;;;;;4.20;3.90;;;;;24.30;100980.00;;;;2070671;28;20269;-56
2022/07/13 02:51:35;;;;;;;4.80;4.40;;;;;24.40;100979.00;;;;2070537;28;20245;-55
2022/07/13 02:52:36;;;;;;;4.53;4.10;;;;;24.40;100979.00;;;;2070389;28;20203;-57
2022/07/13 02:53:36;;;;;;;4.63;4.23;;;;;24.40;100972.00;;;;2070465;28;20218;-59
2022/07/13 02:54:37;;;;;;;4.27;3.93;;;;;24.40;100967.00;;;;2070327;28;20677;-59
2022/07/13 02:55:37;;;;;;;4.73;4.03;;;;;24.30;100993.00;;;;2070600;28;20256;-58
2022/07/13 02:56:38;;;;;;;4.70;4.07;;;;;24.40;100972.00;;;;2069877;28;20855;-57
2022/07/13 02:57:38;;;;;;;4.33;3.60;;;;;24.30;100959.00;;;;2069636;28;20224;-56
2022/07/13 02:58:38;;;;;;;3.87;3.57;;;;;24.40;100964.00;;;;2070595;28;20214;-56
2022/07/13 02:59:39;;;;;;;4.37;4.07;;;;;24.30;100965.00;;;;2070502;28;20210;-57
2022/07/13 03:00:39;;;;;;;3.97;3.67;;;;;24.30;100968.00;;;;2070387;28;20210;-55
2022/07/13 03:01:39;;;;;;;4.17;3.77;;;;;24.40;100988.00;;;;2070327;28;20250;-55
2022/07/13 03:02:40;;;;;;;3.97;3.60;;;;;24.40;100961.00;;;;2070409;28;20303;-57
2022/07/13 03:03:40;;;;;;;3.70;3.40;;;;;24.40;100962.00;;;;2070497;28;20210;-56
2022/07/13 03:04:40;;;;;;;4.10;3.73;;;;;24.40;100960.00;;;;2073404;28;20209;-56
2022/07/13 03:05:40;;;;;;;4.27;3.87;;;;;24.30;100958.00;;;;2078278;28;20214;-55
2022/07/13 03:06:41;;;;;;;4.30;4.00;;;;;24.30;100959.00;;;;2077390;28;20213;-55
2022/07/13 03:07:41;;;;;;;4.03;3.50;;;;;24.40;100954.00;;;;2069608;28;20284;-55
2022/07/13 03:08:41;;;;;;;4.10;3.80;;;;;24.40;100955.00;;;;2070628;28;20229;-54
2022/07/13 03:09:42;;;;;;;4.10;3.70;;;;;24.40;100963.00;;;;2070529;28;20249;-56
2022/07/13 03:10:42;;;;;;;4.10;3.80;;;;;24.40;100967.00;;;;2070569;28;20229;-55
2022/07/13 03:11:43;;;;;;;3.93;3.63;;;;;24.40;100965.00;;;;2070425;28;20213;-58
2022/07/13 03:12:43;;;;;;;4.10;3.70;;;;;24.30;100969.00;;;;2070358;28;20222;-55
2022/07/13 03:13:43;;;;;;;4.23;3.83;;;;;24.40;100972.00;;;;2070550;28;20736;-55
2022/07/13 03:14:44;;;;;;;4.00;3.70;;;;;24.40;100978.00;;;;2070239;28;20222;-55
2022/07/13 03:15:44;;;;;;;4.20;3.90;;;;;24.40;100969.00;;;;2070410;28;20268;-55
2022/07/13 03:16:44;;;;;;;4.10;3.80;;;;;24.40;100968.00;;;;2070288;28;20209;-57
2022/07/13 03:17:45;;;;;;;4.23;3.83;;;;;24.30;100977.00;;;;2069450;28;20257;-56
2022/07/13 03:18:45;;;;;;;4.07;3.67;;;;;24.40;100973.00;;;;2070619;28;20260;-54
2022/07/13 03:19:45;;;;;;;4.30;3.90;;;;;24.30;100966.00;;;;2070678;28;20214;-55
2022/07/13 03:20:46;;;;;;;3.73;3.33;;;;;24.30;100964.00;;;;2070506;28;20230;-54
2022/07/13 03:21:46;;;;;;;4.50;4.10;;;;;24.40;100959.00;;;;2070826;28;20226;-54
2022/07/13 03:22:49;;;;;;;3.93;3.60;;;;;24.40;100958.00;;;;2076189;28;20299;-54
2022/07/13 03:23:49;;;;;;;3.85;3.55;;;;;24.40;100951.00;;;;2078734;28;20221;-54
2022/07/13 03:24:49;;;;;;;4.00;3.40;;;;;24.40;100945.00;;;;2078611;28;20677;-55
2022/07/13 03:25:50;;;;;;;5.57;4.10;;;;;24.40;100948.00;;;;2074606;28;20696;-55
2022/07/13 03:26:50;;;;;;;3.90;3.50;;;;;24.30;100947.00;;;;2079865;28;20216;-55
2022/07/13 03:27:50;;;;;;;4.17;3.80;;;;;24.30;100936.00;;;;2079246;28;20217;-55
2022/07/13 03:28:51;;;;;;;4.20;3.80;;;;;24.30;100925.00;;;;2079921;28;20271;-55
2022/07/13 03:29:51;;;;;;;4.40;4.00;;;;;24.30;100949.00;;;;2078376;28;20557;-54
2022/07/13 03:30:52;;;;;;;4.17;3.77;;;;;24.30;100948.00;;;;2078613;28;20227;-54
2022/07/13 03:31:52;;;;;;;4.07;3.67;;;;;24.30;100953.00;;;;2079111;28;20396;-55
2022/07/13 03:32:52;;;;;;;3.60;3.30;;;;;24.30;100953.00;;;;2079027;28;20209;-60
2022/07/13 03:33:53;;;;;;;3.90;3.60;;;;;24.30;100951.00;;;;2079435;28;20724;-57
2022/07/13 03:34:54;;;;;;;4.00;3.60;;;;;24.30;100948.00;;;;2079157;28;20236;-54
2022/07/13 03:35:54;;;;;;;4.00;3.60;;;;;24.30;100946.00;;;;2072024;28;20219;-53
2022/07/13 03:36:54;;;;;;;3.73;3.43;;;;;24.30;100780.00;;;;2079508;28;20217;-55
2022/07/13 03:37:55;;;;;;;4.30;4.00;;;;;24.30;100949.00;;;;2078338;28;20209;-54
2022/07/13 03:38:55;;;;;;;4.07;3.67;;;;;24.30;100952.00;;;;2079745;28;20210;-55
2022/07/13 03:39:56;;;;;;;4.13;3.83;;;;;24.30;100945.00;;;;2079081;28;20251;-54
2022/07/13 03:40:56;;;;;;;3.57;3.27;;;;;24.30;100946.00;;;;2078920;28;20751;-55
2022/07/13 03:41:56;;;;;;;5.30;3.80;;;;;23.70;100941.00;;;;2079629;28;20234;-55
2022/07/13 03:42:56;;;;;;;4.07;3.70;;;;;24.30;100940.00;;;;2074198;28;20216;-55
2022/07/13 03:43:57;;;;;;;4.20;3.90;;;;;24.30;100938.00;;;;2087046;28;21122;-55
2022/07/13 03:44:57;;;;;;;4.50;4.10;;;;;24.30;100932.00;;;;2083034;28;20752;-55
2022/07/13 03:45:57;;;;;;;3.80;3.37;;;;;24.30;100925.00;;;;2079202;28;20533;-55
2022/07/13 03:46:58;;;;;;;4.20;3.80;;;;;24.30;100736.00;;;;2079312;28;20213;-55
2022/07/13 03:47:59;;;;;;;3.87;3.57;;;;;24.30;100930.00;;;;2077946;28;20339;-55
2022/07/13 03:48:59;;;;;;;3.47;3.17;;;;;24.30;100936.00;;;;2079024;28;20256;-55
2022/07/13 03:49:59;;;;;;;5.00;3.77;;;;;24.30;100924.00;;;;2079623;28;20902;-55
2022/07/13 03:51:00;;;;;;;4.13;3.73;;;;;24.30;100933.00;;;;2078984;28;20215;-55
2022/07/13 03:52:00;;;;;;;3.93;3.63;;;;;24.30;100939.00;;;;2079423;28;20281;-55
2022/07/13 03:53:00;;;;;;;3.90;3.40;;;;;24.30;100913.00;;;;2078280;28;20209;-53
2022/07/13 03:54:01;;;;;;;4.83;4.20;;;;;24.30;100926.00;;;;2078757;28;20213;-54
2022/07/13 03:55:01;;;;;;;3.73;3.43;;;;;24.30;100931.00;;;;2079359;28;20256;-54
2022/07/13 03:56:01;;;;;;;3.80;3.50;;;;;24.30;100929.00;;;;2079683;28;20217;-55
2022/07/13 03:57:02;;;;;;;4.10;3.70;;;;;24.30;100927.00;;;;2079244;28;20210;-54
2022/07/13 03:58:02;;;;;;;4.30;3.40;;;;;24.30;100932.00;;;;2078041;28;20837;-54
2022/07/13 03:59:02;;;;;;;3.87;3.23;;;;;24.30;100925.00;;;;2079170;28;20320;-56
2022/07/13 04:00:03;;;;;;;3.87;3.57;;;;;24.30;100929.00;;;;2079679;28;20201;-58
2022/07/13 04:01:05;;;;;;;3.70;3.40;;;;;24.30;100931.00;;;;2079559;28;20208;-54
2022/07/13 04:02:06;;;;;;;3.50;3.20;;;;;24.30;100930.00;;;;2077661;28;20209;-54
2022/07/13 04:03:06;;;;;;;4.00;3.70;;;;;24.30;100929.00;;;;2071302;28;20259;-54
2022/07/13 04:04:06;;;;;;;4.03;3.60;;;;;24.30;100927.00;;;;2070713;28;20210;-54
2022/07/13 04:05:07;;;;;;;3.70;3.40;;;;;24.20;100924.00;;;;2070654;28;20210;-56
2022/07/13 04:06:07;;;;;;;4.17;3.57;;;;;24.30;100921.00;;;;2071396;28;20252;-57
2022/07/13 04:07:07;;;;;;;4.07;3.67;;;;;24.30;100920.00;;;;2073199;28;20355;-57
2022/07/13 04:08:08;;;;;;;3.57;3.27;;;;;24.30;100917.00;;;;2078525;28;20213;-58
2022/07/13 04:09:08;;;;;;;3.90;3.60;;;;;24.30;100921.00;;;;2079749;28;20339;-57
2022/07/13 04:10:08;;;;;;;3.83;3.53;;;;;24.30;100922.00;;;;2066344;28;20214;-55
2022/07/13 04:11:09;;;;;;;3.93;3.50;;;;;24.30;100928.00;;;;2071054;28;20367;-56
2022/07/13 04:12:09;;;;;;;4.47;3.63;;;;;24.30;100919.00;;;;2069884;28;20210;-58
2022/07/13 04:13:10;;;;;;;3.90;3.60;;;;;24.30;100926.00;;;;2078584;28;20217;-56
2022/07/13 04:14:10;;;;;;;3.30;3.03;;;;;24.30;100930.00;;;;2079468;28;20777;-56
2022/07/13 04:15:11;;;;;;;4.03;3.73;;;;;24.30;100934.00;;;;2079771;28;20615;-56
2022/07/13 04:16:11;;;;;;;3.90;3.60;;;;;24.30;100932.00;;;;2079893;28;20214;-55
2022/07/13 04:17:11;;;;;;;4.10;3.80;;;;;24.30;100935.00;;;;2079372;28;20728;-55
2022/07/13 04:18:12;;;;;;;3.87;3.57;;;;;24.30;100938.00;;;;2078778;28;20681;-58
2022/07/13 04:19:12;;;;;;;3.90;3.60;;;;;24.30;100937.00;;;;2079731;28;20708;-56
2022/07/13 04:20:12;;;;;;;3.90;3.60;;;;;24.30;100936.00;;;;2079614;28;20206;-56
2022/07/13 04:21:14;;;;;;;6.00;3.93;;;;;24.30;100941.00;;;;2079101;28;20213;-55
2022/07/13 04:22:14;;;;;;;4.22;3.83;;;;;24.30;100932.00;;;;2078489;28;20272;-59
2022/07/13 04:23:14;;;;;;;3.93;3.63;;;;;24.30;100925.00;;;;2078961;28;20217;-58
2022/07/13 04:24:15;;;;;;;3.30;3.10;;;;;24.30;100923.00;;;;2078895;28;20259;-57
2022/07/13 04:25:15;;;;;;;3.30;3.00;;;;;24.30;100921.00;;;;2078819;28;20202;-56
2022/07/13 04:26:15;;;;;;;5.23;3.50;;;;;24.30;100922.00;;;;2079393;28;20202;-55
2022/07/13 04:27:15;;;;;;;4.60;3.60;;;;;24.30;100919.00;;;;2078952;28;20229;-56
2022/07/13 04:28:16;;;;;;;4.30;3.67;;;;;24.30;100926.00;;;;2079351;28;20213;-55
2022/07/13 04:29:16;;;;;;;4.30;3.93;;;;;24.30;100921.00;;;;2078650;28;20225;-55
2022/07/13 04:30:17;;;;;;;4.13;3.77;;;;;24.30;100920.00;;;;2079501;28;20245;-58
2022/07/13 04:31:17;;;;;;;4.10;3.70;;;;;24.30;100920.00;;;;2079432;28;20220;-55
2022/07/13 04:32:17;;;;;;;3.70;3.40;;;;;24.30;100922.00;;;;2079787;28;20218;-56
2022/07/13 04:33:17;;;;;;;4.00;3.70;;;;;24.30;100915.00;;;;2079563;28;20218;-56
2022/07/13 04:34:18;;;;;;;4.10;3.70;;;;;24.30;100911.00;;;;2079510;28;20263;-56
2022/07/13 04:35:18;;;;;;;3.70;3.40;;;;;24.30;100910.00;;;;2079766;28;20213;-55
2022/07/13 04:36:18;;;;;;;4.10;3.80;;;;;24.30;100733.00;;;;2079789;28;20591;-54
2022/07/13 04:37:19;;;;;;;4.10;3.80;;;;;24.30;100905.00;;;;2078788;28;20577;-59
2022/07/13 04:38:19;;;;;;;4.00;3.60;;;;;24.30;100910.00;;;;2079529;28;20644;-56
2022/07/13 04:39:19;;;;;;;3.80;3.50;;;;;24.30;100909.00;;;;2077729;28;20600;-54
2022/07/13 04:40:20;;;;;;;3.70;3.40;;;;;24.30;100903.00;;;;2079497;28;20622;-55
2022/07/13 04:41:20;;;;;;;3.90;3.53;;;;;24.30;100896.00;;;;2079419;28;20683;-54
2022/07/13 04:42:20;;;;;;;3.97;3.67;;;;;24.30;100912.00;;;;2079686;28;20218;-55
2022/07/13 04:43:21;;;;;;;3.93;3.63;;;;;24.30;100907.00;;;;2079472;28;20229;-55
2022/07/13 04:44:21;;;;;;;3.77;3.47;;;;;24.30;100910.00;;;;2077945;28;20225;-55
2022/07/13 04:45:21;;;;;;;4.50;3.83;;;;;24.30;100904.00;;;;2071461;28;20217;-57
2022/07/13 04:46:24;;;;;;;3.73;3.43;;;;;24.30;100903.00;;;;2070764;28;20233;-55
2022/07/13 04:47:25;;;;;;;4.03;3.60;;;;;24.30;100904.00;;;;2068647;28;20215;-56
2022/07/13 04:48:25;;;;;;;3.77;3.43;;;;;24.30;100902.00;;;;2071303;28;20230;-55
2022/07/13 04:49:25;;;;;;;3.70;3.40;;;;;24.30;100765.00;;;;2071406;28;20554;-55
2022/07/13 04:50:26;;;;;;;3.40;3.10;;;;;24.30;100898.00;;;;2071454;28;20595;-56
2022/07/13 04:51:26;;;;;;;3.70;3.40;;;;;24.30;100905.00;;;;2071058;28;20643;-55
2022/07/13 04:52:27;;;;;;;3.67;3.37;;;;;24.30;100905.00;;;;2071466;28;20214;-54
2022/07/13 04:53:27;;;;;;;3.70;3.40;;;;;24.30;100901.00;;;;2071225;28;20244;-54
2022/07/13 04:54:27;;;;;;;3.70;3.40;;;;;24.30;100896.00;;;;2071404;28;20228;-55
2022/07/13 04:55:28;;;;;;;4.07;2.97;;;;;24.30;100898.00;;;;2070287;28;20214;-55
2022/07/13 04:56:28;;;;;;;4.27;3.33;;;;;24.30;100902.00;;;;2071353;28;20348;-55
2022/07/13 04:57:29;;;;;;;4.13;3.70;;;;;24.30;100901.00;;;;2070368;28;20271;-54
2022/07/13 04:58:29;;;;;;;4.03;3.70;;;;;24.30;100896.00;;;;2071290;28;20249;-55